createdAt,value
2019-02-11T00:01:11.534Z,96955.83
2019-02-11T00:03:44.619Z,96952.13
2019-02-11T00:06:16.965Z,96959.86
2019-02-11T00:08:49.817Z,96965.43
2019-02-11T00:11:22.191Z,96966.92
2019-02-11T00:13:54.560Z,96957.98
2019-02-11T00:16:26.755Z,96970.84
2019-02-11T00:18:59.140Z,96965.73
2019-02-11T00:21:31.511Z,96977.89
2019-02-11T00:24:04.189Z,96979.33
2019-02-11T00:26:36.540Z,96995.71
2019-02-11T00:29:08.610Z,96985.88
2019-02-11T00:31:40.736Z,96981.66
2019-02-11T00:34:13.261Z,96978.45
2019-02-11T00:36:45.601Z,96978.55
2019-02-11T00:39:18.021Z,96989.55
2019-02-11T00:41:50.821Z,96972.86
2019-02-11T00:44:23.249Z,96982.64
2019-02-11T00:46:55.719Z,97000.38
2019-02-11T00:49:28.147Z,96988.38
2019-02-11T00:52:00.609Z,96978.61
2019-02-11T00:54:32.933Z,96993.05
2019-02-11T00:57:05.102Z,97009.85
2019-02-11T00:59:37.624Z,97000.50
2019-02-11T01:02:09.932Z,97006.33
2019-02-11T01:04:42.295Z,97007.79
2019-02-11T01:07:15.321Z,97011.47
2019-02-11T01:09:47.689Z,97010.16
2019-02-11T01:12:20.108Z,97009.67
2019-02-11T01:14:52.512Z,97012.09
2019-02-11T01:17:24.986Z,97008.44
2019-02-11T01:19:57.577Z,97020.46
2019-02-11T01:22:29.945Z,97015.67
2019-02-11T01:25:02.069Z,97005.34
2019-02-11T01:27:34.149Z,97009.43
2019-02-11T01:30:09.749Z,96997.27
2019-02-11T01:32:42.421Z,97005.78
2019-02-11T01:35:14.795Z,97004.68
2019-02-11T01:37:47.365Z,97015.28
2019-02-11T01:40:19.689Z,97004.83
2019-02-11T01:42:51.902Z,97002.97
2019-02-11T01:45:24.237Z,97017.73
2019-02-11T01:47:56.339Z,97019.82
2019-02-11T01:50:28.413Z,97014.05
2019-02-11T01:53:00.531Z,97010.29
2019-02-11T01:55:32.634Z,97018.80
2019-02-11T01:58:04.673Z,97013.21
2019-02-11T02:00:36.844Z,97013.51
2019-02-11T02:03:08.948Z,97021.03
2019-02-11T02:05:41.378Z,97009.92
2019-02-11T02:08:13.679Z,97015.12
2019-02-11T02:10:45.944Z,97026.00
2019-02-11T02:13:18.378Z,97021.66
2019-02-11T02:15:51.275Z,97019.21
2019-02-11T02:18:24.076Z,97024.32
2019-02-11T02:20:56.485Z,97023.95
2019-02-11T02:23:28.678Z,97026.98
2019-02-11T02:26:01.411Z,97034.08
2019-02-11T02:28:33.753Z,97044.41
2019-02-11T02:31:06.113Z,97041.88
2019-02-11T02:33:38.429Z,97052.47
2019-02-11T02:36:11.198Z,97062.80
2019-02-11T02:38:43.621Z,97073.08
2019-02-11T02:41:15.938Z,97055.11
2019-02-11T02:43:55.202Z,97065.55
2019-02-11T02:46:22.580Z,97052.37
2019-02-11T02:48:54.623Z,97073.95
2019-02-11T02:51:26.764Z,97068.84
2019-02-11T02:53:59.641Z,97070.88
2019-02-11T02:56:32.036Z,97068.98
2019-02-11T02:59:04.638Z,97083.49
2019-02-11T03:01:37.361Z,97087.33
2019-02-11T03:04:10.182Z,97101.35
2019-02-11T03:06:42.600Z,97105.98
2019-02-11T03:09:15.080Z,97117.14
2019-02-11T03:11:52.309Z,97121.48
2019-02-11T03:14:24.662Z,97135.64
2019-02-11T03:16:56.733Z,97142.14
2019-02-11T03:19:28.899Z,97155.08
2019-02-11T03:22:01.570Z,97155.20
2019-02-11T03:24:33.888Z,97156.29
2019-02-11T03:27:05.951Z,97164.74
2019-02-11T03:29:38.415Z,97173.49
2019-02-11T03:32:10.975Z,97182.24
2019-02-11T03:34:43.307Z,97185.44
2019-02-11T03:37:15.395Z,97196.34
2019-02-11T03:39:47.529Z,97198.52
2019-02-11T03:42:19.587Z,97221.55
2019-02-11T03:44:53.144Z,97220.88
2019-02-11T03:47:24.132Z,97216.88
2019-02-11T03:49:56.093Z,97222.02
2019-02-11T03:52:28.551Z,97222.98
2019-02-11T03:55:00.859Z,97243.63
2019-02-11T03:57:33.018Z,97240.30
2019-02-11T04:00:05.785Z,97251.39
2019-02-11T04:02:38.112Z,97253.93
2019-02-11T04:05:10.270Z,97256.55
2019-02-11T04:07:42.647Z,97274.91
2019-02-11T04:10:15.993Z,97287.42
2019-02-11T04:12:48.980Z,97293.98
2019-02-11T04:15:21.463Z,97309.50
2019-02-11T04:17:53.815Z,97320.47
2019-02-11T04:20:25.891Z,97321.44
2019-02-11T04:22:58.504Z,97340.73
2019-02-11T04:25:30.891Z,97349.44
2019-02-11T04:28:03.590Z,97346.10
2019-02-11T04:30:36.364Z,97355.53
2019-02-11T04:33:08.708Z,97367.25
2019-02-11T04:35:41.213Z,97378.83
2019-02-11T04:38:13.558Z,97381.83
2019-02-11T04:40:45.640Z,97403.91
2019-02-11T04:43:17.704Z,97396.29
2019-02-11T04:45:49.766Z,97402.13
2019-02-11T04:48:21.854Z,97406.65
2019-02-11T04:50:54.756Z,97424.19
2019-02-11T04:53:26.877Z,97420.01
2019-02-11T04:55:58.967Z,97433.86
2019-02-11T04:58:31.085Z,97436.14
2019-02-11T05:01:03.172Z,97444.12
2019-02-11T05:03:35.254Z,97449.37
2019-02-11T05:06:07.499Z,97452.92
2019-02-11T05:08:40.176Z,97462.72
2019-02-11T05:11:12.902Z,97466.16
2019-02-11T05:13:45.292Z,97466.90
2019-02-11T05:16:18.032Z,97475.95
2019-02-11T05:18:50.876Z,97473.45
2019-02-11T05:21:23.329Z,97486.17
2019-02-11T05:23:56.556Z,97487.14
2019-02-11T05:26:27.554Z,97492.14
2019-02-11T05:28:59.538Z,97493.69
2019-02-11T05:31:32.855Z,97498.94
2019-02-11T05:34:05.748Z,97495.34
2019-02-11T05:36:38.099Z,97503.09
2019-02-11T05:39:10.697Z,97507.27
2019-02-11T05:41:43.052Z,97511.20
2019-02-11T05:44:15.520Z,97525.12
2019-02-11T05:46:47.901Z,97531.92
2019-02-11T05:49:20.066Z,97540.13
2019-02-11T05:51:53.232Z,97538.70
2019-02-11T05:54:25.818Z,97544.75
2019-02-11T05:56:58.282Z,97557.88
2019-02-11T05:59:31.176Z,97548.20
2019-02-11T06:02:03.559Z,97558.34
2019-02-11T06:05:01.826Z,97557.03
2019-02-11T06:07:22.040Z,97564.30
2019-02-11T06:09:54.391Z,97560.00
2019-02-11T06:12:26.759Z,97573.95
2019-02-11T06:15:04.337Z,97582.41
2019-02-11T06:17:33.955Z,97586.10
2019-02-11T06:20:07.161Z,97585.48
2019-02-11T06:22:38.597Z,97597.38
2019-02-11T06:25:10.833Z,97607.87
2019-02-11T06:27:43.454Z,97613.84
2019-02-11T06:30:18.792Z,97617.18
2019-02-11T06:32:50.523Z,97616.94
2019-02-11T06:35:23.005Z,97631.94
2019-02-11T06:37:55.359Z,97645.30
2019-02-11T06:40:27.433Z,97648.95
2019-02-11T06:42:59.645Z,97648.84
2019-02-11T06:45:32.350Z,97655.03
2019-02-11T06:48:04.718Z,97669.95
2019-02-11T06:50:36.884Z,97674.95
2019-02-11T06:53:09.100Z,97686.77
2019-02-11T06:55:41.861Z,97689.61
2019-02-11T06:58:14.241Z,97689.61
2019-02-11T07:00:46.365Z,97696.89
2019-02-11T07:03:18.454Z,97698.45
2019-02-11T07:05:50.511Z,97709.75
2019-02-11T07:08:23.237Z,97709.16
2019-02-11T07:10:56.053Z,97712.02
2019-02-11T07:13:28.413Z,97726.82
2019-02-11T07:16:00.482Z,97733.12
2019-02-11T07:18:32.592Z,97734.81
2019-02-11T07:21:04.722Z,97746.50
2019-02-11T07:23:42.269Z,97758.65
2019-02-11T07:26:15.371Z,97769.14
2019-02-11T07:28:48.446Z,97772.58
2019-02-11T07:31:22.708Z,97785.58
2019-02-11T07:33:54.784Z,97781.52
2019-02-11T07:36:27.281Z,97787.03
2019-02-11T07:38:59.637Z,97794.66
2019-02-11T07:41:41.405Z,97800.14
2019-02-11T07:44:18.875Z,97803.72
2019-02-11T07:46:55.854Z,97801.09
2019-02-11T07:49:28.585Z,97805.37
2019-02-11T07:52:00.652Z,97808.00
2019-02-11T07:54:33.274Z,97810.50
2019-02-11T07:57:05.335Z,97813.98
2019-02-11T07:59:37.997Z,97826.13
2019-02-11T08:02:10.061Z,97835.90
2019-02-11T08:04:42.133Z,97836.16
2019-02-11T08:07:14.230Z,97836.98
2019-02-11T08:09:46.323Z,97843.42
2019-02-11T08:12:18.384Z,97850.24
2019-02-11T08:14:50.439Z,97854.41
2019-02-11T08:17:22.537Z,97864.67
2019-02-11T08:19:55.739Z,97869.07
2019-02-11T08:22:28.784Z,97867.41
2019-02-11T08:25:01.245Z,97867.41
2019-02-11T08:27:33.841Z,97874.56
2019-02-11T08:30:06.488Z,97869.69
2019-02-11T08:32:39.539Z,97872.08
2019-02-11T08:35:12.277Z,97874.19
2019-02-11T08:37:44.620Z,97884.45
2019-02-11T08:40:16.755Z,97884.22
2019-02-11T08:42:48.832Z,97878.27
2019-02-11T08:45:21.010Z,97888.77
2019-02-11T08:47:53.397Z,97894.14
2019-02-11T08:50:25.756Z,97909.54
2019-02-11T08:52:59.318Z,97907.27
2019-02-11T08:55:32.206Z,97916.68
2019-02-11T08:58:04.930Z,97925.75
2019-02-11T09:00:37.812Z,97928.76
2019-02-11T09:03:10.161Z,97927.45
2019-02-11T09:05:42.255Z,97938.99
2019-02-11T09:08:14.444Z,97939.60
2019-02-11T09:10:46.920Z,97944.84
2019-02-11T09:13:19.290Z,97950.48
2019-02-11T09:15:55.368Z,97951.79
2019-02-11T09:18:25.868Z,97962.64
2019-02-11T09:20:58.515Z,97971.34
2019-02-11T09:23:30.955Z,97967.90
2019-02-11T09:26:03.029Z,97974.34
2019-02-11T09:28:35.101Z,97983.19
2019-02-11T09:31:07.307Z,97978.51
2019-02-11T09:33:39.664Z,97992.02
2019-02-11T09:36:11.728Z,97988.66
2019-02-11T09:38:44.817Z,97988.66
2019-02-11T09:41:17.185Z,98005.88
2019-02-11T09:43:49.256Z,98014.11
2019-02-11T09:46:22.166Z,98015.30
2019-02-11T09:48:55.071Z,98025.69
2019-02-11T09:51:28.838Z,98041.22
2019-02-11T09:54:01.531Z,98043.00
2019-02-11T09:56:34.107Z,98054.47
2019-02-11T09:59:06.525Z,98054.23
2019-02-11T10:01:39.134Z,98060.80
2019-02-11T10:04:11.483Z,98064.41
2019-02-11T10:06:43.969Z,98076.94
2019-02-11T10:09:16.906Z,98075.96
2019-02-11T10:11:49.252Z,98073.66
2019-02-11T10:14:21.553Z,98075.81
2019-02-11T10:16:53.909Z,98083.51
2019-02-11T10:19:26.339Z,98071.02
2019-02-11T10:21:58.706Z,98081.27
2019-02-11T10:24:30.922Z,98079.73
2019-02-11T10:27:03.716Z,98092.08
2019-02-11T10:29:36.172Z,98095.34
2019-02-11T10:32:08.621Z,98112.30
2019-02-11T10:34:40.992Z,98110.98
2019-02-11T10:37:13.117Z,98114.25
2019-02-11T10:39:45.277Z,98113.75
2019-02-11T10:42:17.416Z,98121.73
2019-02-11T10:44:49.522Z,98124.99
2019-02-11T10:47:21.602Z,98121.98
2019-02-11T10:49:53.672Z,98117.98
2019-02-11T10:52:25.892Z,98112.13
2019-02-11T10:54:58.325Z,98126.13
2019-02-11T10:57:30.889Z,98123.86
2019-02-11T11:00:03.251Z,98118.22
2019-02-11T11:02:35.319Z,98129.48
2019-02-11T11:05:09.059Z,98145.50
2019-02-11T11:07:41.747Z,98148.25
2019-02-11T11:10:25.455Z,98147.70
2019-02-11T11:12:58.596Z,98160.76
2019-02-11T11:15:31.105Z,98153.30
2019-02-11T11:18:03.454Z,98149.36
2019-02-11T11:20:35.725Z,98148.92
2019-02-11T11:23:08.189Z,98160.42
2019-02-11T11:25:40.538Z,98161.97
2019-02-11T11:28:12.606Z,98175.09
2019-02-11T11:30:44.868Z,98164.13
2019-02-11T11:33:17.205Z,98166.49
2019-02-11T11:35:49.790Z,98167.79
2019-02-11T11:38:22.174Z,98172.92
2019-02-11T11:40:54.310Z,98180.73
2019-02-11T11:43:26.707Z,98188.50
2019-02-11T11:45:58.873Z,98192.35
2019-02-11T11:48:30.995Z,98194.06
2019-02-11T11:51:03.173Z,98194.69
2019-02-11T11:53:35.458Z,98190.36
2019-02-11T11:56:07.816Z,98204.40
2019-02-11T11:58:40.170Z,98209.19
2019-02-11T12:01:12.419Z,98214.00
2019-02-11T12:03:44.771Z,98220.62
2019-02-11T12:06:17.328Z,98213.90
2019-02-11T12:08:49.675Z,98229.95
2019-02-11T12:11:21.825Z,98223.82
2019-02-11T12:13:54.174Z,98218.66
2019-02-11T12:16:26.460Z,98226.31
2019-02-11T12:18:59.090Z,98221.18
2019-02-11T12:21:32.584Z,98231.71
2019-02-11T12:24:05.236Z,98231.55
2019-02-11T12:26:37.303Z,98231.68
2019-02-11T12:29:09.797Z,98234.06
2019-02-11T12:31:41.874Z,98238.95
2019-02-11T12:34:14.415Z,98230.98
2019-02-11T12:36:46.744Z,98234.56
2019-02-11T12:39:18.840Z,98236.45
2019-02-11T12:41:50.941Z,98231.52
2019-02-11T12:44:23.108Z,98243.66
2019-02-11T12:47:12.768Z,98243.86
2019-02-11T12:49:30.019Z,98246.87
2019-02-11T12:52:02.371Z,98259.84
2019-02-11T12:54:34.479Z,98254.10
2019-02-11T12:57:06.889Z,98273.72
2019-02-11T12:59:38.959Z,98268.69
2019-02-11T13:02:11.065Z,98277.94
2019-02-11T13:04:43.158Z,98272.65
2019-02-11T13:07:15.218Z,98280.00
2019-02-11T13:09:47.270Z,98276.41
2019-02-11T13:12:19.960Z,98282.86
2019-02-11T13:14:52.308Z,98275.55
2019-02-11T13:17:34.004Z,98282.98
2019-02-11T13:20:08.416Z,98283.34
2019-02-11T13:22:33.744Z,98281.65
2019-02-11T13:25:09.419Z,98280.09
2019-02-11T13:27:42.251Z,98292.53
2019-02-11T13:30:21.796Z,98307.73
2019-02-11T13:32:54.121Z,98298.16
2019-02-11T13:35:26.347Z,98292.80
2019-02-11T13:37:58.447Z,98304.89
2019-02-11T13:40:30.591Z,98321.16
2019-02-11T13:43:03.218Z,98325.49
2019-02-11T13:45:35.658Z,98325.59
2019-02-11T13:48:08.067Z,98335.14
2019-02-11T13:50:40.353Z,98334.57
2019-02-11T13:53:12.650Z,98339.74
2019-02-11T13:55:44.701Z,98343.70
2019-02-11T13:58:17.000Z,98345.64
2019-02-11T14:00:50.388Z,98353.05
2019-02-11T14:03:23.625Z,98357.60
2019-02-11T14:05:55.977Z,98368.72
2019-02-11T14:08:28.499Z,98368.49
2019-02-11T14:11:00.679Z,98373.52
2019-02-11T14:13:32.754Z,98374.82
2019-02-11T14:16:04.817Z,98388.82
2019-02-11T14:18:36.860Z,98390.38
2019-02-11T14:21:09.497Z,98388.47
2019-02-11T14:23:41.551Z,98402.63
2019-02-11T14:26:14.270Z,98407.06
2019-02-11T14:28:49.539Z,98417.02
2019-02-11T14:31:21.120Z,98418.33
2019-02-11T14:33:53.458Z,98411.61
2019-02-11T14:36:25.581Z,98425.38
2019-02-11T14:38:57.639Z,98432.09
2019-02-11T14:41:29.734Z,98432.45
2019-02-11T14:44:01.778Z,98442.05
2019-02-11T14:46:33.945Z,98442.06
2019-02-11T14:49:06.321Z,98456.89
2019-02-11T14:51:38.377Z,98468.29
2019-02-11T14:54:10.500Z,98476.90
2019-02-11T14:56:42.718Z,98476.44
2019-02-11T14:59:15.090Z,98486.13
2019-02-11T15:01:47.767Z,98485.05
2019-02-11T15:04:20.512Z,98487.45
2019-02-11T15:06:52.845Z,98499.77
2019-02-11T15:09:25.029Z,98496.91
2019-02-11T15:11:57.642Z,98493.77
2019-02-11T15:14:30.835Z,98487.30
2019-02-11T15:17:03.217Z,98498.58
2019-02-11T15:19:36.283Z,98494.12
2019-02-11T15:22:08.653Z,98501.55
2019-02-11T15:24:41.475Z,98513.53
2019-02-11T15:27:17.462Z,98502.38
2019-02-11T15:29:50.478Z,98511.47
2019-02-11T15:32:22.920Z,98513.64
2019-02-11T15:34:55.936Z,98516.39
2019-02-11T15:37:28.202Z,98519.25
2019-02-11T15:40:00.908Z,98528.83
2019-02-11T15:42:33.252Z,98528.94
2019-02-11T15:45:06.563Z,98536.49
2019-02-11T15:47:39.223Z,98542.73
2019-02-11T15:50:13.140Z,98536.14
2019-02-11T15:52:46.540Z,98549.07
2019-02-11T15:55:19.842Z,98545.13
2019-02-11T15:57:50.834Z,98560.55
2019-02-11T16:00:23.536Z,98557.09
2019-02-11T16:02:56.213Z,98554.19
2019-02-11T16:05:28.544Z,98564.02
2019-02-11T16:08:00.625Z,98565.80
2019-02-11T16:10:32.665Z,98563.50
2019-02-11T16:13:05.310Z,98577.75
2019-02-11T16:15:37.819Z,98581.81
2019-02-11T16:18:10.154Z,98585.15
2019-02-11T16:20:42.511Z,98585.76
2019-02-11T16:23:14.974Z,98583.46
2019-02-11T16:25:47.307Z,98592.79
2019-02-11T16:28:19.445Z,98581.85
2019-02-11T16:30:51.823Z,98597.77
2019-02-11T16:33:24.275Z,98604.95
2019-02-11T16:35:56.700Z,98608.07
2019-02-11T16:38:29.170Z,98603.19
2019-02-11T16:41:02.059Z,98613.23
2019-02-11T16:43:34.836Z,98626.50
2019-02-11T16:46:07.177Z,98634.73
2019-02-11T16:48:39.305Z,98625.62
2019-02-11T16:51:11.690Z,98617.02
2019-02-11T16:53:44.374Z,98629.44
2019-02-11T16:56:16.794Z,98622.95
2019-02-11T16:58:49.572Z,98638.52
2019-02-11T17:01:22.235Z,98654.39
2019-02-11T17:03:55.105Z,98656.14
2019-02-11T17:06:27.510Z,98659.95
2019-02-11T17:09:00.691Z,98664.69
2019-02-11T17:11:33.819Z,98662.80
2019-02-11T17:14:06.315Z,98677.63
2019-02-11T17:16:38.630Z,98675.35
2019-02-11T17:19:10.993Z,98685.52
2019-02-11T17:21:43.377Z,98690.42
2019-02-11T17:24:16.119Z,98691.74
2019-02-11T17:26:48.962Z,98701.09
2019-02-11T17:29:21.524Z,98697.50
2019-02-11T17:31:53.932Z,98708.31
2019-02-11T17:34:25.988Z,98724.78
2019-02-11T17:36:58.391Z,98733.45
2019-02-11T17:39:30.732Z,98738.89
2019-02-11T17:42:03.420Z,98734.33
2019-02-11T17:44:35.930Z,98746.89
2019-02-11T17:47:08.292Z,98749.02
2019-02-11T17:49:40.841Z,98740.78
2019-02-11T17:52:13.370Z,98754.56
2019-02-11T17:54:46.028Z,98768.33
2019-02-11T17:57:18.572Z,98780.31
2019-02-11T17:59:51.009Z,98779.50
2019-02-11T18:02:24.008Z,98802.84
2019-02-11T18:04:56.371Z,98805.02
2019-02-11T18:07:28.699Z,98808.37
2019-02-11T18:10:01.112Z,98818.06
2019-02-11T18:12:33.140Z,98825.46
2019-02-11T18:15:06.513Z,98829.60
2019-02-11T18:17:38.884Z,98836.56
2019-02-11T18:20:11.356Z,98844.64
2019-02-11T18:22:43.952Z,98855.90
2019-02-11T18:25:16.314Z,98869.08
2019-02-11T18:27:48.693Z,98874.88
2019-02-11T18:30:22.371Z,98875.95
2019-02-11T18:32:54.955Z,98884.66
2019-02-11T18:35:27.153Z,98891.05
2019-02-11T18:38:00.248Z,98886.72
2019-02-11T18:40:32.616Z,98893.47
2019-02-11T18:43:05.074Z,98898.36
2019-02-11T18:45:37.665Z,98901.08
2019-02-11T18:48:10.108Z,98907.73
2019-02-11T18:50:43.330Z,98915.24
2019-02-11T18:53:15.766Z,98919.18
2019-02-11T18:55:48.379Z,98931.36
2019-02-11T18:58:21.331Z,98934.93
2019-02-11T19:00:53.679Z,98940.91
2019-02-11T19:03:25.781Z,98939.41
2019-02-11T19:05:57.919Z,98947.65
2019-02-11T19:08:29.967Z,98940.05
2019-02-11T19:11:03.223Z,98951.77
2019-02-11T19:13:36.268Z,98956.75
2019-02-11T19:16:08.799Z,98963.21
2019-02-11T19:18:41.130Z,98971.35
2019-02-11T19:21:13.294Z,98969.72
2019-02-11T19:23:45.390Z,98984.73
2019-02-11T19:26:17.849Z,99000.20
2019-02-11T19:28:50.286Z,99004.58
2019-02-11T19:31:22.719Z,99010.59
2019-02-11T19:33:55.375Z,99018.84
2019-02-11T19:36:28.507Z,99018.26
2019-02-11T19:39:00.322Z,99031.95
2019-02-11T19:41:32.676Z,99025.48
2019-02-11T19:44:05.269Z,99033.41
2019-02-11T19:46:37.925Z,99039.95
2019-02-11T19:49:10.637Z,99042.00
2019-02-11T19:51:42.993Z,99031.79
2019-02-11T19:54:15.990Z,99039.12
2019-02-11T19:56:48.057Z,99036.30
2019-02-11T19:59:21.002Z,99037.61
2019-02-11T20:01:53.715Z,99032.64
2019-02-11T20:04:26.186Z,99045.22
2019-02-11T20:06:58.911Z,99058.85
2019-02-11T20:09:32.935Z,99068.59
2019-02-11T20:12:06.033Z,99069.42
2019-02-11T20:14:38.642Z,99067.91
2019-02-11T20:17:11.301Z,99065.38
2019-02-11T20:19:43.610Z,99073.18
2019-02-11T20:22:16.053Z,99080.92
2019-02-11T20:24:48.427Z,99078.54
2019-02-11T20:27:20.791Z,99077.73
2019-02-11T20:29:53.228Z,99077.90
2019-02-11T20:32:26.436Z,99088.84
2019-02-11T20:34:57.692Z,99095.56
2019-02-11T20:37:30.037Z,99104.61
2019-02-11T20:40:03.924Z,99106.98
2019-02-11T20:42:37.070Z,99121.86
2019-02-11T20:45:16.754Z,99117.09
2019-02-11T20:47:50.708Z,99111.73
2019-02-11T20:50:26.268Z,99122.10
2019-02-11T20:52:57.842Z,99130.13
2019-02-11T20:55:30.324Z,99135.77
2019-02-11T20:58:02.928Z,99129.92
2019-02-11T21:00:35.691Z,99137.67
2019-02-11T21:03:08.664Z,99134.79
2019-02-11T21:05:41.065Z,99147.77
2019-02-11T21:08:13.462Z,99155.03
2019-02-11T21:10:46.056Z,99158.96
2019-02-11T21:13:18.497Z,99159.55
2019-02-11T21:15:51.126Z,99167.66
2019-02-11T21:18:24.202Z,99164.25
2019-02-11T21:20:56.294Z,99160.86
2019-02-11T21:23:28.357Z,99163.05
2019-02-11T21:26:01.223Z,99155.86
2019-02-11T21:28:33.943Z,99157.57
2019-02-11T21:31:06.267Z,99151.84
2019-02-11T21:33:38.341Z,99155.61
2019-02-11T21:36:10.478Z,99159.43
2019-02-11T21:38:42.878Z,99163.50
2019-02-11T21:41:15.195Z,99158.62
2019-02-11T21:43:47.258Z,99163.05
2019-02-11T21:46:20.281Z,99167.00
2019-02-11T21:48:53.065Z,99173.62
2019-02-11T21:51:25.377Z,99178.78
2019-02-11T21:53:57.728Z,99176.91
2019-02-11T21:56:30.095Z,99180.92
2019-02-11T21:59:02.263Z,99193.11
2019-02-11T22:01:35.036Z,99195.97
2019-02-11T22:04:07.456Z,99207.20
2019-02-11T22:06:39.943Z,99202.97
2019-02-11T22:09:12.552Z,99209.30
2019-02-11T22:11:45.138Z,99220.60
2019-02-11T22:14:17.564Z,99230.40
2019-02-11T22:16:49.909Z,99223.94
2019-02-11T22:19:21.988Z,99223.00
2019-02-11T22:21:54.041Z,99217.38
2019-02-11T22:24:26.125Z,99209.13
2019-02-11T22:26:58.270Z,99206.20
2019-02-11T22:29:30.399Z,99204.44
2019-02-11T22:32:02.436Z,99205.60
2019-02-11T22:34:34.842Z,99202.50
2019-02-11T22:37:07.259Z,99213.12
2019-02-11T22:39:40.005Z,99226.06
2019-02-11T22:42:12.350Z,99223.70
2019-02-11T22:44:44.442Z,99226.29
2019-02-11T22:47:16.535Z,99225.69
2019-02-11T22:49:48.993Z,99227.38
2019-02-11T22:52:21.654Z,99225.24
2019-02-11T22:54:54.383Z,99222.24
2019-02-11T22:57:26.716Z,99227.78
2019-02-11T22:59:59.189Z,99236.09
2019-02-11T23:02:31.979Z,99240.80
2019-02-11T23:05:05.092Z,99239.25
2019-02-11T23:07:37.665Z,99237.88
2019-02-11T23:10:10.483Z,99242.73
2019-02-11T23:12:43.518Z,99252.51
2019-02-11T23:15:16.051Z,99261.23
2019-02-11T23:17:48.641Z,99264.37
2019-02-11T23:20:20.983Z,99265.83
2019-02-11T23:22:53.094Z,99268.29
2019-02-11T23:25:25.306Z,99271.47
2019-02-11T23:27:57.878Z,99270.08
2019-02-11T23:30:30.213Z,99281.31
2019-02-11T23:33:02.318Z,99277.64
2019-02-11T23:35:34.374Z,99281.95
2019-02-11T23:38:06.610Z,99290.81
2019-02-11T23:40:38.957Z,99298.82
2019-02-11T23:43:11.053Z,99301.89
2019-02-11T23:45:43.150Z,99312.15
2019-02-11T23:48:15.282Z,99319.72
2019-02-11T23:50:47.338Z,99332.52
2019-02-11T23:53:19.935Z,99329.75
2019-02-11T23:55:52.601Z,99332.59
2019-02-11T23:58:24.783Z,99348.24
